sensor_id;sensor_type;location;lat;lon;timestamp;P1;durP1;ratioP1;P2;durP2;ratioP2
11970;SDS011;6045;42.682;23.294;2023-08-21T00:00:53;5.28;;;4.30;;
11970;SDS011;6045;42.682;23.294;2023-08-21T00:03:20;5.93;;;4.25;;
11970;SDS011;6045;42.682;23.294;2023-08-21T00:05:47;4.60;;;4.15;;
11970;SDS011;6045;42.682;23.294;2023-08-21T00:08:14;6.78;;;4.25;;
11970;SDS011;6045;42.682;23.294;2023-08-21T00:10:41;5.78;;;4.30;;
11970;SDS011;6045;42.682;23.294;2023-08-21T00:13:09;6.70;;;4.50;;
11970;SDS011;6045;42.682;23.294;2023-08-21T00:15:37;4.40;;;4.00;;
11970;SDS011;6045;42.682;23.294;2023-08-21T00:18:04;6.50;;;4.28;;
11970;SDS011;6045;42.682;23.294;2023-08-21T00:20:31;5.70;;;4.03;;
11970;SDS011;6045;42.682;23.294;2023-08-21T00:22:58;5.55;;;4.35;;
11970;SDS011;6045;42.682;23.294;2023-08-21T00:25:25;4.57;;;4.10;;
11970;SDS011;6045;42.682;23.294;2023-08-21T00:27:51;4.43;;;3.95;;
11970;SDS011;6045;42.682;23.294;2023-08-21T00:30:20;4.40;;;4.00;;
11970;SDS011;6045;42.682;23.294;2023-08-21T00:32:47;6.63;;;4.57;;
11970;SDS011;6045;42.682;23.294;2023-08-21T00:35:13;4.72;;;4.10;;
11970;SDS011;6045;42.682;23.294;2023-08-21T00:37:40;4.80;;;4.20;;
11970;SDS011;6045;42.682;23.294;2023-08-21T00:40:10;5.15;;;4.43;;
11970;SDS011;6045;42.682;23.294;2023-08-21T00:42:38;5.45;;;4.13;;
11970;SDS011;6045;42.682;23.294;2023-08-21T00:45:05;5.63;;;4.60;;
11970;SDS011;6045;42.682;23.294;2023-08-21T00:47:34;5.63;;;4.22;;
11970;SDS011;6045;42.682;23.294;2023-08-21T00:50:01;4.53;;;4.20;;
11970;SDS011;6045;42.682;23.294;2023-08-21T00:52:29;7.57;;;4.30;;
11970;SDS011;6045;42.682;23.294;2023-08-21T00:54:56;4.90;;;4.43;;
11970;SDS011;6045;42.682;23.294;2023-08-21T00:57:24;4.63;;;4.18;;
11970;SDS011;6045;42.682;23.294;2023-08-21T00:59:51;5.20;;;4.25;;
11970;SDS011;6045;42.682;23.294;2023-08-21T01:02:18;5.75;;;4.45;;
11970;SDS011;6045;42.682;23.294;2023-08-21T01:04:46;5.35;;;4.43;;
11970;SDS011;6045;42.682;23.294;2023-08-21T01:07:13;5.65;;;4.40;;
11970;SDS011;6045;42.682;23.294;2023-08-21T01:09:43;5.13;;;4.47;;
11970;SDS011;6045;42.682;23.294;2023-08-21T01:12:24;4.90;;;4.40;;
11970;SDS011;6045;42.682;23.294;2023-08-21T01:14:58;5.43;;;4.35;;
11970;SDS011;6045;42.682;23.294;2023-08-21T01:17:26;5.22;;;4.72;;
11970;SDS011;6045;42.682;23.294;2023-08-21T01:19:56;4.30;;;3.83;;
11970;SDS011;6045;42.682;23.294;2023-08-21T01:22:25;4.97;;;4.22;;
11970;SDS011;6045;42.682;23.294;2023-08-21T01:24:54;5.05;;;4.50;;
11970;SDS011;6045;42.682;23.294;2023-08-21T01:27:21;5.22;;;4.22;;
11970;SDS011;6045;42.682;23.294;2023-08-21T01:29:50;4.93;;;4.43;;
11970;SDS011;6045;42.682;23.294;2023-08-21T01:32:23;4.60;;;4.20;;
11970;SDS011;6045;42.682;23.294;2023-08-21T01:34:56;4.63;;;4.20;;
11970;SDS011;6045;42.682;23.294;2023-08-21T01:37:24;4.93;;;4.10;;
11970;SDS011;6045;42.682;23.294;2023-08-21T01:39:52;5.10;;;4.05;;
11970;SDS011;6045;42.682;23.294;2023-08-21T01:42:24;7.30;;;4.22;;
11970;SDS011;6045;42.682;23.294;2023-08-21T01:44:50;7.13;;;4.25;;
11970;SDS011;6045;42.682;23.294;2023-08-21T01:47:17;4.97;;;4.57;;
11970;SDS011;6045;42.682;23.294;2023-08-21T01:49:44;5.40;;;4.13;;
11970;SDS011;6045;42.682;23.294;2023-08-21T01:52:11;5.22;;;4.40;;
11970;SDS011;6045;42.682;23.294;2023-08-21T01:54:38;5.32;;;4.60;;
11970;SDS011;6045;42.682;23.294;2023-08-21T01:57:06;5.00;;;4.53;;
11970;SDS011;6045;42.682;23.294;2023-08-21T01:59:33;5.57;;;4.05;;
11970;SDS011;6045;42.682;23.294;2023-08-21T02:01:59;4.80;;;4.28;;
11970;SDS011;6045;42.682;23.294;2023-08-21T02:04:26;7.30;;;3.92;;
11970;SDS011;6045;42.682;23.294;2023-08-21T02:06:53;6.93;;;4.38;;
11970;SDS011;6045;42.682;23.294;2023-08-21T02:09:20;5.85;;;4.38;;
11970;SDS011;6045;42.682;23.294;2023-08-21T02:11:46;4.90;;;4.22;;
11970;SDS011;6045;42.682;23.294;2023-08-21T02:14:15;7.28;;;4.40;;
11970;SDS011;6045;42.682;23.294;2023-08-21T02:16:42;4.80;;;4.30;;
11970;SDS011;6045;42.682;23.294;2023-08-21T02:19:08;5.30;;;4.70;;
11970;SDS011;6045;42.682;23.294;2023-08-21T02:21:35;5.15;;;4.07;;
11970;SDS011;6045;42.682;23.294;2023-08-21T02:24:03;6.30;;;4.50;;
11970;SDS011;6045;42.682;23.294;2023-08-21T02:26:30;5.47;;;4.20;;
11970;SDS011;6045;42.682;23.294;2023-08-21T02:28:57;5.88;;;4.32;;
11970;SDS011;6045;42.682;23.294;2023-08-21T02:31:25;5.70;;;4.20;;
11970;SDS011;6045;42.682;23.294;2023-08-21T02:33:52;5.35;;;4.20;;
11970;SDS011;6045;42.682;23.294;2023-08-21T02:36:19;6.03;;;4.35;;
11970;SDS011;6045;42.682;23.294;2023-08-21T02:38:45;4.97;;;4.07;;
11970;SDS011;6045;42.682;23.294;2023-08-21T02:41:12;4.93;;;4.30;;
11970;SDS011;6045;42.682;23.294;2023-08-21T02:43:39;6.18;;;4.00;;
11970;SDS011;6045;42.682;23.294;2023-08-21T02:46:06;5.13;;;3.80;;
11970;SDS011;6045;42.682;23.294;2023-08-21T02:48:35;6.10;;;5.03;;
11970;SDS011;6045;42.682;23.294;2023-08-21T02:51:02;5.63;;;4.78;;
11970;SDS011;6045;42.682;23.294;2023-08-21T02:53:29;4.63;;;4.18;;
11970;SDS011;6045;42.682;23.294;2023-08-21T02:55:56;6.45;;;4.45;;
11970;SDS011;6045;42.682;23.294;2023-08-21T02:58:22;6.68;;;4.60;;
11970;SDS011;6045;42.682;23.294;2023-08-21T03:00:49;5.50;;;4.40;;
11970;SDS011;6045;42.682;23.294;2023-08-21T03:03:16;7.10;;;4.60;;
11970;SDS011;6045;42.682;23.294;2023-08-21T03:05:44;6.05;;;4.32;;
11970;SDS011;6045;42.682;23.294;2023-08-21T03:08:11;4.97;;;4.35;;
11970;SDS011;6045;42.682;23.294;2023-08-21T03:10:38;6.70;;;5.10;;
11970;SDS011;6045;42.682;23.294;2023-08-21T03:13:05;4.88;;;4.40;;
11970;SDS011;6045;42.682;23.294;2023-08-21T03:15:32;6.00;;;4.45;;
11970;SDS011;6045;42.682;23.294;2023-08-21T03:18:00;5.97;;;4.80;;
11970;SDS011;6045;42.682;23.294;2023-08-21T03:20:27;7.18;;;4.70;;
11970;SDS011;6045;42.682;23.294;2023-08-21T03:22:55;7.55;;;5.03;;
11970;SDS011;6045;42.682;23.294;2023-08-21T03:25:22;6.57;;;5.00;;
11970;SDS011;6045;42.682;23.294;2023-08-21T03:27:49;5.43;;;4.70;;
11970;SDS011;6045;42.682;23.294;2023-08-21T03:30:15;5.40;;;4.50;;
11970;SDS011;6045;42.682;23.294;2023-08-21T03:32:45;6.57;;;5.15;;
11970;SDS011;6045;42.682;23.294;2023-08-21T03:35:11;8.77;;;5.15;;
11970;SDS011;6045;42.682;23.294;2023-08-21T03:37:38;6.13;;;4.93;;
11970;SDS011;6045;42.682;23.294;2023-08-21T03:40:07;7.43;;;5.35;;
11970;SDS011;6045;42.682;23.294;2023-08-21T03:42:35;8.20;;;5.03;;
11970;SDS011;6045;42.682;23.294;2023-08-21T03:45:02;5.20;;;4.60;;
11970;SDS011;6045;42.682;23.294;2023-08-21T03:47:30;6.68;;;5.03;;
11970;SDS011;6045;42.682;23.294;2023-08-21T03:49:56;5.85;;;5.20;;
11970;SDS011;6045;42.682;23.294;2023-08-21T03:52:23;8.70;;;5.38;;
11970;SDS011;6045;42.682;23.294;2023-08-21T03:54:50;6.55;;;5.18;;
11970;SDS011;6045;42.682;23.294;2023-08-21T03:57:18;7.40;;;5.07;;
11970;SDS011;6045;42.682;23.294;2023-08-21T03:59:45;8.48;;;4.88;;
11970;SDS011;6045;42.682;23.294;2023-08-21T04:02:12;7.32;;;5.28;;
11970;SDS011;6045;42.682;23.294;2023-08-21T04:04:39;6.25;;;5.38;;
11970;SDS011;6045;42.682;23.294;2023-08-21T04:07:05;7.15;;;5.07;;
11970;SDS011;6045;42.682;23.294;2023-08-21T04:09:32;5.50;;;4.80;;
11970;SDS011;6045;42.682;23.294;2023-08-21T04:11:59;6.32;;;5.00;;
11970;SDS011;6045;42.682;23.294;2023-08-21T04:14:28;5.40;;;4.90;;
11970;SDS011;6045;42.682;23.294;2023-08-21T04:16:54;7.57;;;5.50;;
11970;SDS011;6045;42.682;23.294;2023-08-21T04:19:21;6.50;;;5.20;;
11970;SDS011;6045;42.682;23.294;2023-08-21T04:21:48;6.32;;;5.60;;
11970;SDS011;6045;42.682;23.294;2023-08-21T04:24:15;7.90;;;5.10;;
11970;SDS011;6045;42.682;23.294;2023-08-21T04:26:41;6.57;;;4.72;;
11970;SDS011;6045;42.682;23.294;2023-08-21T04:29:08;8.52;;;5.78;;
11970;SDS011;6045;42.682;23.294;2023-08-21T04:31:36;6.60;;;5.28;;
11970;SDS011;6045;42.682;23.294;2023-08-21T04:34:03;7.50;;;5.22;;
11970;SDS011;6045;42.682;23.294;2023-08-21T04:36:30;8.93;;;5.35;;
11970;SDS011;6045;42.682;23.294;2023-08-21T04:38:57;6.75;;;5.03;;
11970;SDS011;6045;42.682;23.294;2023-08-21T04:41:24;7.70;;;5.10;;
11970;SDS011;6045;42.682;23.294;2023-08-21T04:43:50;8.10;;;4.40;;
11970;SDS011;6045;42.682;23.294;2023-08-21T04:46:17;7.60;;;5.13;;
11970;SDS011;6045;42.682;23.294;2023-08-21T04:48:46;6.97;;;5.25;;
11970;SDS011;6045;42.682;23.294;2023-08-21T04:51:13;10.82;;;6.00;;
11970;SDS011;6045;42.682;23.294;2023-08-21T04:53:40;7.13;;;5.40;;
11970;SDS011;6045;42.682;23.294;2023-08-21T04:56:06;6.40;;;5.53;;
11970;SDS011;6045;42.682;23.294;2023-08-21T04:58:33;9.93;;;6.15;;
11970;SDS011;6045;42.682;23.294;2023-08-21T05:01:00;12.45;;;9.10;;
11970;SDS011;6045;42.682;23.294;2023-08-21T05:03:30;11.43;;;7.00;;
11970;SDS011;6045;42.682;23.294;2023-08-21T05:05:58;7.90;;;5.70;;
11970;SDS011;6045;42.682;23.294;2023-08-21T05:08:25;8.98;;;5.65;;
11970;SDS011;6045;42.682;23.294;2023-08-21T05:10:55;8.38;;;6.63;;
11970;SDS011;6045;42.682;23.294;2023-08-21T05:13:22;9.35;;;6.20;;
11970;SDS011;6045;42.682;23.294;2023-08-21T05:15:53;7.10;;;5.60;;
11970;SDS011;6045;42.682;23.294;2023-08-21T05:18:21;7.03;;;5.35;;
11970;SDS011;6045;42.682;23.294;2023-08-21T05:20:48;6.35;;;4.85;;
11970;SDS011;6045;42.682;23.294;2023-08-21T05:23:17;9.48;;;5.45;;
11970;SDS011;6045;42.682;23.294;2023-08-21T05:25:44;5.88;;;4.63;;
11970;SDS011;6045;42.682;23.294;2023-08-21T05:28:11;5.45;;;4.70;;
11970;SDS011;6045;42.682;23.294;2023-08-21T05:30:41;5.95;;;4.82;;
11970;SDS011;6045;42.682;23.294;2023-08-21T05:33:08;6.75;;;4.95;;
11970;SDS011;6045;42.682;23.294;2023-08-21T05:35:35;8.02;;;5.07;;
11970;SDS011;6045;42.682;23.294;2023-08-21T05:38:03;5.15;;;4.60;;
11970;SDS011;6045;42.682;23.294;2023-08-21T05:40:31;8.07;;;4.80;;
11970;SDS011;6045;42.682;23.294;2023-08-21T05:42:58;4.78;;;4.30;;
11970;SDS011;6045;42.682;23.294;2023-08-21T05:45:25;7.38;;;5.22;;
11970;SDS011;6045;42.682;23.294;2023-08-21T05:47:51;7.55;;;5.00;;
11970;SDS011;6045;42.682;23.294;2023-08-21T05:50:18;4.95;;;4.45;;
11970;SDS011;6045;42.682;23.294;2023-08-21T05:52:45;6.15;;;4.55;;
11970;SDS011;6045;42.682;23.294;2023-08-21T05:55:12;5.88;;;5.18;;
11970;SDS011;6045;42.682;23.294;2023-08-21T05:57:40;8.05;;;4.75;;
11970;SDS011;6045;42.682;23.294;2023-08-21T06:00:08;6.55;;;4.68;;
11970;SDS011;6045;42.682;23.294;2023-08-21T06:02:35;6.13;;;5.05;;
11970;SDS011;6045;42.682;23.294;2023-08-21T06:05:02;6.35;;;4.22;;
11970;SDS011;6045;42.682;23.294;2023-08-21T06:07:29;6.50;;;5.25;;
11970;SDS011;6045;42.682;23.294;2023-08-21T06:09:56;10.70;;;5.28;;
11970;SDS011;6045;42.682;23.294;2023-08-21T06:12:23;8.85;;;4.78;;
11970;SDS011;6045;42.682;23.294;2023-08-21T06:14:51;6.00;;;4.30;;
11970;SDS011;6045;42.682;23.294;2023-08-21T06:17:18;4.75;;;4.13;;
11970;SDS011;6045;42.682;23.294;2023-08-21T06:19:45;6.28;;;4.50;;
11970;SDS011;6045;42.682;23.294;2023-08-21T06:22:12;6.55;;;4.43;;
11970;SDS011;6045;42.682;23.294;2023-08-21T06:24:38;6.63;;;4.72;;
11970;SDS011;6045;42.682;23.294;2023-08-21T06:27:05;8.13;;;5.18;;
11970;SDS011;6045;42.682;23.294;2023-08-21T06:29:32;7.22;;;4.63;;
11970;SDS011;6045;42.682;23.294;2023-08-21T06:32:00;5.63;;;4.53;;
11970;SDS011;6045;42.682;23.294;2023-08-21T06:34:27;7.88;;;4.72;;
11970;SDS011;6045;42.682;23.294;2023-08-21T06:36:54;5.32;;;4.20;;
11970;SDS011;6045;42.682;23.294;2023-08-21T06:39:21;6.25;;;4.50;;
11970;SDS011;6045;42.682;23.294;2023-08-21T06:41:47;5.70;;;4.43;;
11970;SDS011;6045;42.682;23.294;2023-08-21T06:44:14;6.38;;;4.30;;
11970;SDS011;6045;42.682;23.294;2023-08-21T06:46:41;5.47;;;4.40;;
11970;SDS011;6045;42.682;23.294;2023-08-21T06:49:10;6.55;;;4.43;;
11970;SDS011;6045;42.682;23.294;2023-08-21T06:51:36;4.75;;;4.18;;
11970;SDS011;6045;42.682;23.294;2023-08-21T06:54:03;4.90;;;4.40;;
11970;SDS011;6045;42.682;23.294;2023-08-21T06:56:31;6.00;;;4.60;;
11970;SDS011;6045;42.682;23.294;2023-08-21T06:58:58;5.38;;;4.18;;
11970;SDS011;6045;42.682;23.294;2023-08-21T07:01:25;5.60;;;4.68;;
11970;SDS011;6045;42.682;23.294;2023-08-21T07:03:52;4.57;;;3.95;;
11970;SDS011;6045;42.682;23.294;2023-08-21T07:06:20;7.90;;;4.75;;
11970;SDS011;6045;42.682;23.294;2023-08-21T07:08:49;5.20;;;4.10;;
11970;SDS011;6045;42.682;23.294;2023-08-21T07:11:16;7.07;;;4.20;;
11970;SDS011;6045;42.682;23.294;2023-08-21T07:13:43;4.20;;;3.80;;
11970;SDS011;6045;42.682;23.294;2023-08-21T07:16:10;5.43;;;4.40;;
11970;SDS011;6045;42.682;23.294;2023-08-21T07:18:38;4.90;;;4.13;;
11970;SDS011;6045;42.682;23.294;2023-08-21T07:21:05;4.43;;;3.95;;
11970;SDS011;6045;42.682;23.294;2023-08-21T07:23:33;4.97;;;4.22;;
11970;SDS011;6045;42.682;23.294;2023-08-21T07:26:00;5.18;;;4.10;;
11970;SDS011;6045;42.682;23.294;2023-08-21T07:28:28;5.13;;;3.72;;
11970;SDS011;6045;42.682;23.294;2023-08-21T07:30:55;5.95;;;4.82;;
11970;SDS011;6045;42.682;23.294;2023-08-21T07:33:22;6.05;;;4.25;;
11970;SDS011;6045;42.682;23.294;2023-08-21T07:35:56;6.35;;;4.40;;
11970;SDS011;6045;42.682;23.294;2023-08-21T07:38:23;4.20;;;3.75;;
11970;SDS011;6045;42.682;23.294;2023-08-21T07:41:01;6.72;;;4.20;;
11970;SDS011;6045;42.682;23.294;2023-08-21T07:43:31;5.00;;;3.97;;
11970;SDS011;6045;42.682;23.294;2023-08-21T07:46:01;5.50;;;4.55;;
11970;SDS011;6045;42.682;23.294;2023-08-21T07:48:28;8.23;;;4.28;;
11970;SDS011;6045;42.682;23.294;2023-08-21T07:50:55;5.05;;;4.25;;
11970;SDS011;6045;42.682;23.294;2023-08-21T07:53:22;4.07;;;3.67;;
11970;SDS011;6045;42.682;23.294;2023-08-21T07:55:49;4.85;;;4.00;;
11970;SDS011;6045;42.682;23.294;2023-08-21T07:58:18;4.53;;;4.00;;
11970;SDS011;6045;42.682;23.294;2023-08-21T08:00:48;4.43;;;4.03;;
11970;SDS011;6045;42.682;23.294;2023-08-21T08:03:15;4.65;;;3.92;;
11970;SDS011;6045;42.682;23.294;2023-08-21T08:05:42;5.10;;;4.38;;
11970;SDS011;6045;42.682;23.294;2023-08-21T08:08:09;5.30;;;3.75;;
11970;SDS011;6045;42.682;23.294;2023-08-21T08:10:36;7.32;;;4.20;;
11970;SDS011;6045;42.682;23.294;2023-08-21T08:13:04;4.45;;;3.80;;
11970;SDS011;6045;42.682;23.294;2023-08-21T08:15:32;4.13;;;3.72;;
11970;SDS011;6045;42.682;23.294;2023-08-21T08:18:00;4.90;;;4.20;;
11970;SDS011;6045;42.682;23.294;2023-08-21T08:20:27;4.70;;;4.00;;
11970;SDS011;6045;42.682;23.294;2023-08-21T08:22:54;5.88;;;4.78;;
11970;SDS011;6045;42.682;23.294;2023-08-21T08:25:21;4.60;;;4.20;;
11970;SDS011;6045;42.682;23.294;2023-08-21T08:27:48;5.07;;;3.83;;
11970;SDS011;6045;42.682;23.294;2023-08-21T08:30:15;5.60;;;3.90;;
11970;SDS011;6045;42.682;23.294;2023-08-21T08:32:43;5.50;;;3.90;;
11970;SDS011;6045;42.682;23.294;2023-08-21T08:35:11;4.57;;;3.85;;
11970;SDS011;6045;42.682;23.294;2023-08-21T08:37:52;4.15;;;3.78;;
11970;SDS011;6045;42.682;23.294;2023-08-21T08:40:20;4.70;;;4.05;;
11970;SDS011;6045;42.682;23.294;2023-08-21T08:42:49;4.68;;;4.00;;
11970;SDS011;6045;42.682;23.294;2023-08-21T08:45:16;4.07;;;3.50;;
11970;SDS011;6045;42.682;23.294;2023-08-21T08:47:57;5.25;;;3.80;;
11970;SDS011;6045;42.682;23.294;2023-08-21T08:50:25;4.55;;;4.15;;
11970;SDS011;6045;42.682;23.294;2023-08-21T08:52:55;4.72;;;4.28;;
11970;SDS011;6045;42.682;23.294;2023-08-21T08:55:23;4.45;;;4.05;;
11970;SDS011;6045;42.682;23.294;2023-08-21T08:57:52;5.22;;;3.83;;
11970;SDS011;6045;42.682;23.294;2023-08-21T09:00:19;5.45;;;3.60;;
11970;SDS011;6045;42.682;23.294;2023-08-21T09:02:47;4.43;;;4.03;;
11970;SDS011;6045;42.682;23.294;2023-08-21T09:05:16;4.45;;;4.05;;
11970;SDS011;6045;42.682;23.294;2023-08-21T09:07:42;4.22;;;3.83;;
11970;SDS011;6045;42.682;23.294;2023-08-21T09:10:12;3.90;;;3.60;;
11970;SDS011;6045;42.682;23.294;2023-08-21T09:12:39;3.83;;;3.45;;
11970;SDS011;6045;42.682;23.294;2023-08-21T09:15:06;3.90;;;3.53;;
11970;SDS011;6045;42.682;23.294;2023-08-21T09:17:34;4.50;;;3.78;;
11970;SDS011;6045;42.682;23.294;2023-08-21T09:20:03;4.40;;;3.97;;
11970;SDS011;6045;42.682;23.294;2023-08-21T09:22:32;5.97;;;4.07;;
11970;SDS011;6045;42.682;23.294;2023-08-21T09:25:02;6.35;;;4.28;;
11970;SDS011;6045;42.682;23.294;2023-08-21T09:27:31;6.63;;;3.65;;
11970;SDS011;6045;42.682;23.294;2023-08-21T09:30:00;4.82;;;4.10;;
11970;SDS011;6045;42.682;23.294;2023-08-21T09:32:29;4.90;;;3.70;;
11970;SDS011;6045;42.682;23.294;2023-08-21T09:34:56;4.88;;;4.35;;
11970;SDS011;6045;42.682;23.294;2023-08-21T09:37:27;3.55;;;3.25;;
11970;SDS011;6045;42.682;23.294;2023-08-21T09:40:01;5.20;;;4.00;;
11970;SDS011;6045;42.682;23.294;2023-08-21T09:42:32;5.10;;;4.30;;
11970;SDS011;6045;42.682;23.294;2023-08-21T09:44:59;4.18;;;3.75;;
11970;SDS011;6045;42.682;23.294;2023-08-21T09:47:27;5.15;;;4.18;;
11970;SDS011;6045;42.682;23.294;2023-08-21T09:49:54;4.18;;;3.55;;
11970;SDS011;6045;42.682;23.294;2023-08-21T09:52:21;4.55;;;4.15;;
11970;SDS011;6045;42.682;23.294;2023-08-21T09:54:49;3.63;;;3.33;;
11970;SDS011;6045;42.682;23.294;2023-08-21T09:57:20;3.92;;;3.33;;
11970;SDS011;6045;42.682;23.294;2023-08-21T09:59:48;3.78;;;3.40;;
11970;SDS011;6045;42.682;23.294;2023-08-21T10:02:18;4.03;;;3.72;;
11970;SDS011;6045;42.682;23.294;2023-08-21T10:04:46;4.35;;;3.20;;
11970;SDS011;6045;42.682;23.294;2023-08-21T10:07:15;3.80;;;3.40;;
11970;SDS011;6045;42.682;23.294;2023-08-21T10:09:43;4.25;;;3.88;;
11970;SDS011;6045;42.682;23.294;2023-08-21T10:12:10;4.53;;;3.92;;
11970;SDS011;6045;42.682;23.294;2023-08-21T10:14:41;3.83;;;3.47;;
11970;SDS011;6045;42.682;23.294;2023-08-21T10:17:08;6.95;;;4.10;;
11970;SDS011;6045;42.682;23.294;2023-08-21T10:19:35;4.22;;;3.75;;
11970;SDS011;6045;42.682;23.294;2023-08-21T10:22:02;3.90;;;3.40;;
11970;SDS011;6045;42.682;23.294;2023-08-21T10:24:33;5.25;;;4.22;;
11970;SDS011;6045;42.682;23.294;2023-08-21T10:27:01;4.13;;;3.67;;
11970;SDS011;6045;42.682;23.294;2023-08-21T10:29:28;4.53;;;3.78;;
11970;SDS011;6045;42.682;23.294;2023-08-21T10:32:00;3.72;;;3.42;;
11970;SDS011;6045;42.682;23.294;2023-08-21T10:34:32;3.50;;;3.20;;
11970;SDS011;6045;42.682;23.294;2023-08-21T10:37:04;5.28;;;3.60;;
11970;SDS011;6045;42.682;23.294;2023-08-21T10:39:34;3.67;;;3.38;;
11970;SDS011;6045;42.682;23.294;2023-08-21T10:42:04;4.00;;;3.67;;
11970;SDS011;6045;42.682;23.294;2023-08-21T10:44:36;5.40;;;3.80;;
11970;SDS011;6045;42.682;23.294;2023-08-21T10:47:14;4.75;;;3.75;;
11970;SDS011;6045;42.682;23.294;2023-08-21T10:49:43;3.83;;;3.50;;
11970;SDS011;6045;42.682;23.294;2023-08-21T10:52:11;3.72;;;3.42;;
11970;SDS011;6045;42.682;23.294;2023-08-21T10:54:48;3.75;;;3.40;;
11970;SDS011;6045;42.682;23.294;2023-08-21T10:57:16;3.60;;;3.10;;
11970;SDS011;6045;42.682;23.294;2023-08-21T10:59:50;3.80;;;3.45;;
11970;SDS011;6045;42.682;23.294;2023-08-21T11:02:19;3.85;;;2.90;;
11970;SDS011;6045;42.682;23.294;2023-08-21T11:04:46;3.95;;;3.60;;
11970;SDS011;6045;42.682;23.294;2023-08-21T11:07:14;4.05;;;3.15;;
11970;SDS011;6045;42.682;23.294;2023-08-21T11:09:41;5.78;;;3.35;;
11970;SDS011;6045;42.682;23.294;2023-08-21T11:12:09;3.65;;;2.90;;
11970;SDS011;6045;42.682;23.294;2023-08-21T11:14:37;4.35;;;2.78;;
11970;SDS011;6045;42.682;23.294;2023-08-21T11:17:04;5.82;;;3.10;;
11970;SDS011;6045;42.682;23.294;2023-08-21T11:19:33;3.50;;;3.20;;
11970;SDS011;6045;42.682;23.294;2023-08-21T11:22:00;3.10;;;2.75;;
11970;SDS011;6045;42.682;23.294;2023-08-21T11:24:30;3.80;;;3.28;;
11970;SDS011;6045;42.682;23.294;2023-08-21T11:26:58;3.35;;;3.10;;
11970;SDS011;6045;42.682;23.294;2023-08-21T11:29:25;3.67;;;3.35;;
11970;SDS011;6045;42.682;23.294;2023-08-21T11:31:52;5.50;;;3.67;;
11970;SDS011;6045;42.682;23.294;2023-08-21T11:34:20;3.33;;;3.00;;
11970;SDS011;6045;42.682;23.294;2023-08-21T11:36:51;4.05;;;3.22;;
11970;SDS011;6045;42.682;23.294;2023-08-21T11:39:19;3.67;;;3.05;;
11970;SDS011;6045;42.682;23.294;2023-08-21T11:41:56;3.03;;;2.83;;
11970;SDS011;6045;42.682;23.294;2023-08-21T11:44:23;4.00;;;3.20;;
11970;SDS011;6045;42.682;23.294;2023-08-21T11:46:51;5.40;;;3.40;;
11970;SDS011;6045;42.682;23.294;2023-08-21T11:49:18;3.05;;;2.80;;
11970;SDS011;6045;42.682;23.294;2023-08-21T11:51:47;3.70;;;3.38;;
11970;SDS011;6045;42.682;23.294;2023-08-21T11:54:18;3.33;;;3.03;;
11970;SDS011;6045;42.682;23.294;2023-08-21T11:56:47;3.60;;;3.30;;
11970;SDS011;6045;42.682;23.294;2023-08-21T11:59:21;3.90;;;3.15;;
11970;SDS011;6045;42.682;23.294;2023-08-21T12:01:49;5.50;;;3.13;;
11970;SDS011;6045;42.682;23.294;2023-08-21T12:04:17;4.18;;;3.65;;
11970;SDS011;6045;42.682;23.294;2023-08-21T12:06:44;3.50;;;3.20;;
11970;SDS011;6045;42.682;23.294;2023-08-21T12:09:11;3.40;;;3.10;;
11970;SDS011;6045;42.682;23.294;2023-08-21T12:11:39;3.33;;;3.03;;
11970;SDS011;6045;42.682;23.294;2023-08-21T12:14:06;4.32;;;3.47;;
11970;SDS011;6045;42.682;23.294;2023-08-21T12:16:42;5.57;;;3.67;;
11970;SDS011;6045;42.682;23.294;2023-08-21T12:19:10;3.55;;;3.25;;
11970;SDS011;6045;42.682;23.294;2023-08-21T12:21:37;3.90;;;3.53;;
11970;SDS011;6045;42.682;23.294;2023-08-21T12:24:04;4.40;;;3.33;;
11970;SDS011;6045;42.682;23.294;2023-08-21T12:26:32;3.35;;;3.05;;
11970;SDS011;6045;42.682;23.294;2023-08-21T12:29:00;3.55;;;3.25;;
11970;SDS011;6045;42.682;23.294;2023-08-21T12:31:28;4.90;;;3.67;;
11970;SDS011;6045;42.682;23.294;2023-08-21T12:33:55;4.95;;;3.88;;
11970;SDS011;6045;42.682;23.294;2023-08-21T12:36:22;4.25;;;3.20;;
11970;SDS011;6045;42.682;23.294;2023-08-21T12:38:49;3.85;;;3.30;;
11970;SDS011;6045;42.682;23.294;2023-08-21T12:41:16;4.28;;;3.33;;
11970;SDS011;6045;42.682;23.294;2023-08-21T12:43:43;3.38;;;3.10;;
11970;SDS011;6045;42.682;23.294;2023-08-21T12:46:12;3.85;;;3.45;;
11970;SDS011;6045;42.682;23.294;2023-08-21T12:48:39;4.68;;;3.83;;
11970;SDS011;6045;42.682;23.294;2023-08-21T12:51:06;3.88;;;3.50;;
11970;SDS011;6045;42.682;23.294;2023-08-21T12:53:34;4.20;;;3.53;;
11970;SDS011;6045;42.682;23.294;2023-08-21T12:56:01;5.13;;;3.65;;
11970;SDS011;6045;42.682;23.294;2023-08-21T12:58:28;6.20;;;3.55;;
11970;SDS011;6045;42.682;23.294;2023-08-21T13:00:55;5.63;;;3.55;;
11970;SDS011;6045;42.682;23.294;2023-08-21T13:03:24;3.65;;;3.28;;
11970;SDS011;6045;42.682;23.294;2023-08-21T13:05:51;3.88;;;3.33;;
11970;SDS011;6045;42.682;23.294;2023-08-21T13:08:18;3.95;;;3.20;;
11970;SDS011;6045;42.682;23.294;2023-08-21T13:10:45;3.92;;;3.28;;
11970;SDS011;6045;42.682;23.294;2023-08-21T13:13:12;3.83;;;3.40;;
11970;SDS011;6045;42.682;23.294;2023-08-21T13:15:39;3.95;;;3.33;;
11970;SDS011;6045;42.682;23.294;2023-08-21T13:18:09;4.43;;;3.45;;
11970;SDS011;6045;42.682;23.294;2023-08-21T13:20:38;3.88;;;3.47;;
11970;SDS011;6045;42.682;23.294;2023-08-21T13:23:05;4.10;;;3.40;;
11970;SDS011;6045;42.682;23.294;2023-08-21T13:25:32;4.28;;;3.28;;
11970;SDS011;6045;42.682;23.294;2023-08-21T13:27:59;3.95;;;3.55;;
11970;SDS011;6045;42.682;23.294;2023-08-21T13:30:28;4.78;;;3.50;;
11970;SDS011;6045;42.682;23.294;2023-08-21T13:32:55;5.03;;;3.78;;
11970;SDS011;6045;42.682;23.294;2023-08-21T13:35:22;4.57;;;3.08;;
11970;SDS011;6045;42.682;23.294;2023-08-21T13:37:51;5.13;;;3.67;;
11970;SDS011;6045;42.682;23.294;2023-08-21T13:40:18;3.63;;;3.33;;
11970;SDS011;6045;42.682;23.294;2023-08-21T13:42:46;4.25;;;3.67;;
11970;SDS011;6045;42.682;23.294;2023-08-21T13:45:14;5.50;;;3.67;;
11970;SDS011;6045;42.682;23.294;2023-08-21T13:47:43;4.13;;;3.53;;
11970;SDS011;6045;42.682;23.294;2023-08-21T13:50:11;4.15;;;3.50;;
11970;SDS011;6045;42.682;23.294;2023-08-21T13:52:38;4.32;;;3.92;;
11970;SDS011;6045;42.682;23.294;2023-08-21T13:55:07;5.18;;;3.53;;
11970;SDS011;6045;42.682;23.294;2023-08-21T13:57:35;3.47;;;3.15;;
11970;SDS011;6045;42.682;23.294;2023-08-21T14:00:03;3.65;;;3.30;;
11970;SDS011;6045;42.682;23.294;2023-08-21T14:02:32;3.75;;;3.42;;
11970;SDS011;6045;42.682;23.294;2023-08-21T14:05:00;3.70;;;3.22;;
11970;SDS011;6045;42.682;23.294;2023-08-21T14:07:26;3.40;;;3.10;;
11970;SDS011;6045;42.682;23.294;2023-08-21T14:09:54;3.88;;;3.42;;
11970;SDS011;6045;42.682;23.294;2023-08-21T14:12:22;3.95;;;3.55;;
11970;SDS011;6045;42.682;23.294;2023-08-21T14:14:49;4.35;;;3.60;;
11970;SDS011;6045;42.682;23.294;2023-08-21T14:17:16;3.70;;;3.30;;
11970;SDS011;6045;42.682;23.294;2023-08-21T14:19:43;3.85;;;3.47;;
11970;SDS011;6045;42.682;23.294;2023-08-21T14:22:10;4.35;;;3.60;;
11970;SDS011;6045;42.682;23.294;2023-08-21T14:24:37;3.85;;;3.42;;
11970;SDS011;6045;42.682;23.294;2023-08-21T14:27:04;3.75;;;3.38;;
11970;SDS011;6045;42.682;23.294;2023-08-21T14:29:32;3.67;;;3.38;;
11970;SDS011;6045;42.682;23.294;2023-08-21T14:31:59;4.88;;;3.58;;
11970;SDS011;6045;42.682;23.294;2023-08-21T14:34:27;4.00;;;3.67;;
11970;SDS011;6045;42.682;23.294;2023-08-21T14:36:54;3.75;;;3.45;;
11970;SDS011;6045;42.682;23.294;2023-08-21T14:39:23;4.97;;;4.00;;
11970;SDS011;6045;42.682;23.294;2023-08-21T14:41:53;3.60;;;3.30;;
11970;SDS011;6045;42.682;23.294;2023-08-21T14:44:21;7.63;;;3.75;;
11970;SDS011;6045;42.682;23.294;2023-08-21T14:46:49;6.13;;;3.88;;
11970;SDS011;6045;42.682;23.294;2023-08-21T14:49:17;4.35;;;3.70;;
11970;SDS011;6045;42.682;23.294;2023-08-21T14:51:44;4.18;;;3.78;;